Time;durP1;ratioP1;P1;durP2;ratioP2;P2;SDS_P1;SDS_P2;PMS_P1;PMS_P2;Temp;Humidity;BMP_temperature;BMP_pressure;BME280_temperature;BME280_humidity;BME280_pressure;Samples;Min_cycle;Max_cycle;Signal;HPM_P1;HPM_P2
2021/06/25 00:00:53;;;;;;;;;;;21.10;59.20;;;;;;482279;247;1082;-44
2021/06/25 00:02:54;;;;;;;;;;;21.10;59.30;;;;;;482083;247;1017;-45
2021/06/25 00:04:55;;;;;;;;;;;21.10;59.30;;;;;;482167;247;1027;-44
2021/06/25 00:06:57;;;;;;;;;;;21.10;59.30;;;;;;482174;247;1097;-44
2021/06/25 00:08:58;;;;;;;;;;;21.10;59.20;;;;;;482340;247;1247;-44
2021/06/25 00:10:59;;;;;;;;;;;21.10;59.20;;;;;;482581;247;1416;-44
2021/06/25 00:13:01;;;;;;;;;;;21.10;59.30;;;;;;482507;247;1202;-44
2021/06/25 00:15:02;;;;;;;;;;;21.10;59.30;;;;;;482177;247;1076;-44
2021/06/25 00:17:04;;;;;;;;;;;21.10;59.30;;;;;;482230;247;2118;-44
2021/06/25 00:19:05;;;;;;;;;;;21.10;59.30;;;;;;482597;247;1080;-44
2021/06/25 00:21:06;;;;;;;;;;;21.10;59.30;;;;;;482127;247;1136;-44
2021/06/25 00:23:08;;;;;;;;;;;21.00;59.20;;;;;;482407;247;1167;-44
2021/06/25 00:25:09;;;;;;;;;;;21.10;59.20;;;;;;482493;247;1067;-44
2021/06/25 00:27:10;;;;;;;;;;;21.10;59.20;;;;;;482132;247;1161;-45
2021/06/25 00:29:12;;;;;;;;;;;21.10;59.20;;;;;;482588;247;1027;-44
2021/06/25 00:31:13;;;;;;;;;;;21.10;59.20;;;;;;482323;247;1190;-44
2021/06/25 00:33:14;;;;;;;;;;;21.10;59.20;;;;;;482661;247;1090;-44
2021/06/25 00:35:16;;;;;;;;;;;21.10;59.20;;;;;;482371;247;1027;-44
2021/06/25 00:37:17;;;;;;;;;;;21.10;59.20;;;;;;482443;247;2196;-44
2021/06/25 00:39:18;;;;;;;;;;;21.10;59.10;;;;;;482302;247;1171;-44
2021/06/25 00:41:20;;;;;;;;;;;21.10;59.10;;;;;;482161;247;1071;-44
2021/06/25 00:43:21;;;;;;;;;;;21.10;59.20;;;;;;482185;247;1057;-44
2021/06/25 00:45:22;;;;;;;;;;;21.10;59.20;;;;;;482149;247;1053;-45
2021/06/25 00:47:24;;;;;;;;;;;21.10;59.20;;;;;;482271;247;1047;-44
2021/06/25 00:49:26;;;;;;;;;;;21.10;59.20;;;;;;482642;247;1064;-44
2021/06/25 00:51:28;;;;;;;;;;;21.10;59.20;;;;;;482098;247;1052;-44
2021/06/25 00:53:29;;;;;;;;;;;21.10;59.20;;;;;;482513;247;1284;-44
2021/06/25 00:55:41;;;;;;;;;;;21.10;59.20;;;;;;482617;247;2130;-44
2021/06/25 00:57:32;;;;;;;;;;;21.10;59.20;;;;;;482132;247;2191;-44
2021/06/25 00:59:33;;;;;;;;;;;21.10;59.20;;;;;;482183;247;1060;-44
2021/06/25 01:01:34;;;;;;;;;;;21.10;59.20;;;;;;482269;247;1120;-44
2021/06/25 01:03:36;;;;;;;;;;;21.10;59.30;;;;;;482659;247;1121;-44
2021/06/25 01:05:37;;;;;;;;;;;21.10;59.20;;;;;;482196;247;1068;-44
2021/06/25 01:07:38;;;;;;;;;;;21.10;59.20;;;;;;482174;247;1204;-44
2021/06/25 01:09:40;;;;;;;;;;;21.10;59.20;;;;;;482347;247;1163;-44
2021/06/25 01:11:41;;;;;;;;;;;21.10;59.30;;;;;;482598;247;1062;-44
2021/06/25 01:13:42;;;;;;;;;;;21.10;59.20;;;;;;482202;247;1057;-44
2021/06/25 01:15:44;;;;;;;;;;;21.10;59.20;;;;;;482440;247;2157;-44
2021/06/25 01:17:45;;;;;;;;;;;21.10;59.20;;;;;;482406;247;1108;-44
2021/06/25 01:19:46;;;;;;;;;;;21.10;59.20;;;;;;482473;247;1066;-44
2021/06/25 01:21:48;;;;;;;;;;;21.10;59.20;;;;;;482258;247;1353;-44
2021/06/25 01:23:49;;;;;;;;;;;21.10;59.20;;;;;;482203;247;1150;-44
2021/06/25 01:25:50;;;;;;;;;;;21.10;59.20;;;;;;482632;247;1224;-44
2021/06/25 01:27:51;;;;;;;;;;;21.10;59.20;;;;;;482250;247;1045;-44
2021/06/25 01:29:53;;;;;;;;;;;21.10;59.30;;;;;;482398;247;1098;-44
2021/06/25 01:31:54;;;;;;;;;;;21.10;59.30;;;;;;482170;247;1144;-44
2021/06/25 01:33:55;;;;;;;;;;;21.10;59.20;;;;;;482229;247;1054;-44
2021/06/25 01:35:57;;;;;;;;;;;21.10;59.20;;;;;;482165;244;2153;-44
2021/06/25 01:37:58;;;;;;;;;;;21.10;59.20;;;;;;482156;247;1129;-44
2021/06/25 01:39:59;;;;;;;;;;;21.10;59.20;;;;;;482188;247;1186;-44
2021/06/25 01:42:01;;;;;;;;;;;21.10;59.30;;;;;;482366;247;1115;-44
2021/06/25 01:44:02;;;;;;;;;;;21.10;59.30;;;;;;482604;247;1058;-44
2021/06/25 01:46:03;;;;;;;;;;;21.10;59.20;;;;;;482110;247;1465;-44
2021/06/25 01:48:05;;;;;;;;;;;21.10;59.20;;;;;;482535;247;1056;-44
2021/06/25 01:50:06;;;;;;;;;;;21.10;59.20;;;;;;482239;247;1170;-44
2021/06/25 01:52:07;;;;;;;;;;;21.10;59.20;;;;;;482137;247;1139;-43
2021/06/25 01:54:09;;;;;;;;;;;21.10;59.20;;;;;;482532;247;1140;-44
2021/06/25 01:56:10;;;;;;;;;;;21.10;59.30;;;;;;482151;247;2196;-44
2021/06/25 01:58:11;;;;;;;;;;;21.10;59.20;;;;;;482280;247;1093;-44
2021/06/25 02:00:13;;;;;;;;;;;21.10;59.30;;;;;;482630;247;1052;-44
2021/06/25 02:02:14;;;;;;;;;;;21.10;59.30;;;;;;482464;247;1343;-44
2021/06/25 02:04:15;;;;;;;;;;;21.10;59.30;;;;;;482327;247;1017;-44
2021/06/25 02:06:17;;;;;;;;;;;21.10;59.30;;;;;;482113;247;1371;-44
2021/06/25 02:08:18;;;;;;;;;;;21.10;59.20;;;;;;482590;247;1165;-44
2021/06/25 02:10:19;;;;;;;;;;;21.10;59.30;;;;;;482257;247;1181;-44
2021/06/25 02:12:21;;;;;;;;;;;21.10;59.30;;;;;;482065;247;1576;-44
2021/06/25 02:14:22;;;;;;;;;;;21.10;59.30;;;;;;482509;247;1041;-44
2021/06/25 02:16:23;;;;;;;;;;;21.10;59.30;;;;;;482004;244;2188;-44
2021/06/25 02:18:24;;;;;;;;;;;21.10;59.20;;;;;;482571;247;1180;-44
2021/06/25 02:20:26;;;;;;;;;;;21.10;59.20;;;;;;482566;247;1075;-44
2021/06/25 02:22:27;;;;;;;;;;;21.10;59.30;;;;;;482186;247;1091;-44
2021/06/25 02:24:29;;;;;;;;;;;21.10;59.30;;;;;;482487;247;1992;-44
2021/06/25 02:26:30;;;;;;;;;;;21.10;59.30;;;;;;482129;247;1086;-44
2021/06/25 02:28:31;;;;;;;;;;;21.10;59.30;;;;;;482606;247;1201;-44
2021/06/25 02:30:32;;;;;;;;;;;21.10;59.20;;;;;;482325;247;1272;-44
2021/06/25 02:32:34;;;;;;;;;;;21.10;59.20;;;;;;482326;247;1046;-44
2021/06/25 02:34:35;;;;;;;;;;;21.10;59.30;;;;;;482082;247;1064;-44
2021/06/25 02:36:36;;;;;;;;;;;21.10;59.30;;;;;;482072;247;2180;-44
2021/06/25 02:38:38;;;;;;;;;;;21.10;59.30;;;;;;482644;247;1088;-44
2021/06/25 02:40:39;;;;;;;;;;;21.10;59.30;;;;;;482271;247;1168;-44
2021/06/25 02:42:40;;;;;;;;;;;21.10;59.30;;;;;;482169;247;1054;-44
2021/06/25 02:44:42;;;;;;;;;;;21.10;59.30;;;;;;482502;247;1037;-44
2021/06/25 02:46:43;;;;;;;;;;;21.10;59.30;;;;;;482285;247;1108;-44
2021/06/25 02:48:44;;;;;;;;;;;21.10;59.30;;;;;;482636;247;1073;-44
2021/06/25 02:50:46;;;;;;;;;;;21.10;59.30;;;;;;482627;247;1023;-44
2021/06/25 02:52:47;;;;;;;;;;;21.10;59.20;;;;;;482606;247;1294;-44
2021/06/25 02:54:48;;;;;;;;;;;21.10;59.20;;;;;;482215;247;1150;-44
2021/06/25 02:56:50;;;;;;;;;;;21.10;59.30;;;;;;482555;247;2149;-44
2021/06/25 02:58:51;;;;;;;;;;;21.10;59.30;;;;;;482345;247;1060;-44
2021/06/25 03:00:53;;;;;;;;;;;21.00;59.40;;;;;;482065;247;1351;-43
2021/06/25 03:02:54;;;;;;;;;;;21.10;59.40;;;;;;482078;247;1174;-44
2021/06/25 03:04:55;;;;;;;;;;;21.10;59.40;;;;;;482186;247;1100;-44
2021/06/25 03:06:57;;;;;;;;;;;21.10;59.30;;;;;;482214;243;1467;-44
2021/06/25 03:08:58;;;;;;;;;;;21.10;59.40;;;;;;482159;247;1138;-44
2021/06/25 03:11:00;;;;;;;;;;;21.10;59.40;;;;;;482129;247;1287;-44
2021/06/25 03:13:01;;;;;;;;;;;21.00;59.40;;;;;;482136;247;1326;-44
2021/06/25 03:15:03;;;;;;;;;;;21.10;59.40;;;;;;482543;247;1051;-44
2021/06/25 03:17:04;;;;;;;;;;;21.00;59.40;;;;;;482046;247;2211;-44
2021/06/25 03:19:05;;;;;;;;;;;21.10;59.30;;;;;;482186;247;1151;-44
2021/06/25 03:21:07;;;;;;;;;;;21.00;59.40;;;;;;482153;245;1223;-44
2021/06/25 03:23:08;;;;;;;;;;;21.00;59.40;;;;;;482160;247;1148;-44
2021/06/25 03:25:09;;;;;;;;;;;21.00;59.50;;;;;;482303;247;1199;-44
2021/06/25 03:27:11;;;;;;;;;;;21.00;59.40;;;;;;482578;247;1632;-44
2021/06/25 03:29:12;;;;;;;;;;;21.00;59.50;;;;;;482530;247;1246;-44
2021/06/25 03:31:13;;;;;;;;;;;21.00;59.40;;;;;;482558;245;1132;-44
2021/06/25 03:33:15;;;;;;;;;;;21.00;59.40;;;;;;482171;247;1041;-44
2021/06/25 03:35:16;;;;;;;;;;;21.00;59.40;;;;;;482159;247;1046;-44
2021/06/25 03:37:17;;;;;;;;;;;21.00;59.50;;;;;;482486;247;2130;-44
2021/06/25 03:39:19;;;;;;;;;;;21.00;59.50;;;;;;482176;247;980;-44
2021/06/25 03:41:20;;;;;;;;;;;21.10;59.40;;;;;;482212;247;1660;-44
2021/06/25 03:43:21;;;;;;;;;;;21.10;59.40;;;;;;482192;247;1069;-44
2021/06/25 03:45:23;;;;;;;;;;;21.10;59.40;;;;;;482485;247;1094;-44
2021/06/25 03:47:24;;;;;;;;;;;21.10;59.30;;;;;;482277;247;1189;-44
2021/06/25 03:49:25;;;;;;;;;;;21.10;59.30;;;;;;482658;247;1059;-44
2021/06/25 03:51:26;;;;;;;;;;;21.00;59.30;;;;;;482482;245;1192;-44
2021/06/25 03:53:28;;;;;;;;;;;21.00;59.40;;;;;;482493;247;1077;-44
2021/06/25 03:55:30;;;;;;;;;;;21.10;59.40;;;;;;482179;247;1104;-44
2021/06/25 03:57:31;;;;;;;;;;;21.10;59.40;;;;;;482208;247;2192;-44
2021/06/25 03:59:32;;;;;;;;;;;21.10;59.40;;;;;;482439;247;1047;-44
2021/06/25 04:01:33;;;;;;;;;;;21.10;59.30;;;;;;482204;245;1599;-44
2021/06/25 04:03:35;;;;;;;;;;;21.10;59.30;;;;;;482152;247;1106;-44
2021/06/25 04:05:36;;;;;;;;;;;21.10;59.30;;;;;;482586;247;1111;-44
2021/06/25 04:07:37;;;;;;;;;;;21.10;59.30;;;;;;482074;247;1387;-44
2021/06/25 04:09:39;;;;;;;;;;;21.10;59.40;;;;;;482251;247;1081;-44
2021/06/25 04:11:40;;;;;;;;;;;21.00;59.40;;;;;;482101;247;1539;-44
2021/06/25 04:13:41;;;;;;;;;;;21.10;59.50;;;;;;482173;247;1181;-44
2021/06/25 04:15:43;;;;;;;;;;;21.00;59.40;;;;;;482169;247;1536;-44
2021/06/25 04:17:44;;;;;;;;;;;21.00;59.40;;;;;;482477;247;2149;-44
2021/06/25 04:19:45;;;;;;;;;;;21.00;59.40;;;;;;482161;247;1161;-44
2021/06/25 04:21:47;;;;;;;;;;;21.00;59.50;;;;;;482476;247;1520;-44
2021/06/25 04:23:48;;;;;;;;;;;21.00;59.40;;;;;;482055;247;1224;-44
2021/06/25 04:25:49;;;;;;;;;;;21.00;59.40;;;;;;482311;247;1143;-44
2021/06/25 04:27:51;;;;;;;;;;;21.00;59.50;;;;;;482099;247;1199;-44
2021/06/25 04:29:52;;;;;;;;;;;21.00;59.50;;;;;;482518;247;1103;-44
2021/06/25 04:31:54;;;;;;;;;;;21.00;59.50;;;;;;482106;247;1196;-44
2021/06/25 04:33:55;;;;;;;;;;;21.00;59.40;;;;;;482107;247;1441;-44
2021/06/25 04:35:57;;;;;;;;;;;21.00;59.40;;;;;;482553;244;1162;-44
2021/06/25 04:38:01;;;;;;;;;;;21.00;59.40;;;;;;482272;247;2145;-44
2021/06/25 04:40:00;;;;;;;;;;;21.00;59.40;;;;;;482086;247;1976;-44
2021/06/25 04:42:01;;;;;;;;;;;21.00;59.50;;;;;;482090;247;1264;-44
2021/06/25 04:44:02;;;;;;;;;;;21.00;59.50;;;;;;482246;247;1075;-44
2021/06/25 04:46:03;;;;;;;;;;;21.00;59.50;;;;;;482219;247;1453;-44
2021/06/25 04:48:05;;;;;;;;;;;21.00;59.40;;;;;;482010;247;1044;-44
2021/06/25 04:50:06;;;;;;;;;;;21.00;59.40;;;;;;482258;247;1046;-44
2021/06/25 04:52:07;;;;;;;;;;;21.00;59.40;;;;;;482060;247;1353;-44
2021/06/25 04:54:09;;;;;;;;;;;21.00;59.50;;;;;;482245;247;1131;-44
2021/06/25 04:56:10;;;;;;;;;;;21.00;59.40;;;;;;482387;247;1159;-44
2021/06/25 04:58:11;;;;;;;;;;;21.00;59.40;;;;;;482278;247;2152;-44
2021/06/25 05:00:13;;;;;;;;;;;21.00;59.40;;;;;;481969;247;1163;-44
2021/06/25 05:02:14;;;;;;;;;;;21.00;59.40;;;;;;481941;247;1073;-44
2021/06/25 05:04:15;;;;;;;;;;;21.00;59.50;;;;;;482149;247;1050;-44
2021/06/25 05:06:17;;;;;;;;;;;21.00;59.50;;;;;;482057;247;1323;-44
2021/06/25 05:08:18;;;;;;;;;;;21.00;59.50;;;;;;482223;247;1046;-44
2021/06/25 05:10:19;;;;;;;;;;;21.00;59.50;;;;;;481997;247;1102;-44
2021/06/25 05:12:21;;;;;;;;;;;21.00;59.50;;;;;;482011;247;1227;-44
2021/06/25 05:14:22;;;;;;;;;;;21.00;59.50;;;;;;482270;247;1062;-44
2021/06/25 05:16:24;;;;;;;;;;;21.00;59.50;;;;;;481938;247;1127;-44
2021/06/25 05:18:25;;;;;;;;;;;21.00;59.50;;;;;;482408;247;2205;-44
2021/06/25 05:20:26;;;;;;;;;;;21.00;59.50;;;;;;482447;247;1137;-44
2021/06/25 05:22:28;;;;;;;;;;;21.10;59.40;;;;;;482111;247;1154;-44
2021/06/25 05:24:29;;;;;;;;;;;21.00;59.40;;;;;;481913;247;1135;-44
2021/06/25 05:26:30;;;;;;;;;;;21.10;59.40;;;;;;481995;247;1308;-44
2021/06/25 05:28:32;;;;;;;;;;;21.10;59.40;;;;;;481866;247;1068;-44
2021/06/25 05:30:33;;;;;;;;;;;21.10;59.30;;;;;;481832;247;1353;-44
2021/06/25 05:32:38;;;;;;;;;;;21.10;59.40;;;;;;482003;247;1163;-44
2021/06/25 05:34:40;;;;;;;;;;;21.00;59.40;;;;;;482098;244;1359;-44
2021/06/25 05:36:41;;;;;;;;;;;21.00;59.40;;;;;;481869;247;1326;-44
2021/06/25 05:38:43;;;;;;;;;;;21.10;59.40;;;;;;482098;247;2196;-44
2021/06/25 05:40:45;;;;;;;;;;;21.10;59.50;;;;;;481806;247;1180;-44
2021/06/25 05:42:46;;;;;;;;;;;21.00;59.40;;;;;;481855;247;1191;-44
2021/06/25 05:44:47;;;;;;;;;;;21.00;59.40;;;;;;481882;247;1135;-44
2021/06/25 05:46:49;;;;;;;;;;;21.00;59.40;;;;;;481973;245;1437;-44
2021/06/25 05:48:50;;;;;;;;;;;21.00;59.40;;;;;;481865;247;1160;-44
2021/06/25 05:50:51;;;;;;;;;;;21.10;59.40;;;;;;481867;247;1185;-44
2021/06/25 05:52:53;;;;;;;;;;;21.00;59.40;;;;;;481825;247;1130;-44
2021/06/25 05:54:54;;;;;;;;;;;21.00;59.40;;;;;;481789;247;1076;-44
2021/06/25 05:56:55;;;;;;;;;;;21.00;59.40;;;;;;481743;247;1234;-44
2021/06/25 05:58:57;;;;;;;;;;;21.00;59.40;;;;;;481855;247;2129;-44
2021/06/25 06:00:58;;;;;;;;;;;21.00;59.40;;;;;;481706;247;1213;-44
2021/06/25 06:02:59;;;;;;;;;;;21.10;59.40;;;;;;481628;247;1235;-44
2021/06/25 06:05:01;;;;;;;;;;;21.10;59.40;;;;;;481444;247;1080;-44
2021/06/25 06:07:03;;;;;;;;;;;21.10;59.40;;;;;;481318;247;1201;-44
2021/06/25 06:09:03;;;;;;;;;;;21.00;59.40;;;;;;481422;247;2212;-44
2021/06/25 06:11:04;;;;;;;;;;;21.00;59.40;;;;;;481793;247;1445;-44
2021/06/25 06:13:06;;;;;;;;;;;21.00;59.40;;;;;;481471;247;1091;-44
2021/06/25 06:15:07;;;;;;;;;;;21.10;59.40;;;;;;481488;247;1137;-44
2021/06/25 06:17:08;;;;;;;;;;;21.00;59.40;;;;;;481389;247;1191;-44
2021/06/25 06:19:10;;;;;;;;;;;21.10;59.40;;;;;;481835;247;2197;-44
2021/06/25 06:21:12;;;;;;;;;;;21.10;59.40;;;;;;481767;243;1040;-44
2021/06/25 06:32:43;;;;;;;;;;;21.00;59.40;;;;;;467741;247;1232;-44
2021/06/25 06:34:39;;;;;;;;;;;21.00;59.50;;;;;;481304;247;2307;-44
2021/06/25 06:36:43;;;;;;;;;;;21.00;59.40;;;;;;481492;247;1242;-44
2021/06/25 06:38:45;;;;;;;;;;;21.10;59.40;;;;;;481839;247;2188;-44
2021/06/25 06:40:45;;;;;;;;;;;21.00;59.40;;;;;;482270;247;1271;-44
2021/06/25 06:42:46;;;;;;;;;;;21.10;59.40;;;;;;481855;247;1216;-44
2021/06/25 06:44:47;;;;;;;;;;;21.10;59.40;;;;;;482283;247;1028;-44
2021/06/25 06:46:49;;;;;;;;;;;21.10;59.40;;;;;;482206;244;1161;-44
2021/06/25 06:48:50;;;;;;;;;;;21.10;59.40;;;;;;482099;247;869;-44
2021/06/25 06:50:51;;;;;;;;;;;21.00;59.40;;;;;;481776;247;1125;-44
2021/06/25 06:52:53;;;;;;;;;;;21.10;59.40;;;;;;482052;247;1076;-44
2021/06/25 06:54:54;;;;;;;;;;;21.00;59.40;;;;;;481738;247;1082;-44
2021/06/25 06:56:55;;;;;;;;;;;21.00;59.50;;;;;;481631;247;1288;-44
2021/06/25 06:58:59;;;;;;;;;;;21.10;59.40;;;;;;481550;247;2196;-44
2021/06/25 07:00:58;;;;;;;;;;;21.10;59.40;;;;;;481421;247;2246;-44
2021/06/25 07:02:59;;;;;;;;;;;21.10;59.40;;;;;;481611;247;1254;-44
2021/06/25 07:05:01;;;;;;;;;;;21.00;59.40;;;;;;481520;247;1119;-44
2021/06/25 07:07:02;;;;;;;;;;;21.10;59.40;;;;;;481356;247;1408;-44
2021/06/25 07:09:03;;;;;;;;;;;21.00;59.50;;;;;;481380;247;1133;-44
2021/06/25 07:11:04;;;;;;;;;;;21.00;59.40;;;;;;481302;247;1378;-44
2021/06/25 07:13:06;;;;;;;;;;;21.10;59.40;;;;;;481300;247;1180;-44
2021/06/25 07:15:07;;;;;;;;;;;21.10;59.40;;;;;;481358;247;1132;-44
2021/06/25 07:17:09;;;;;;;;;;;21.10;59.40;;;;;;481498;247;1115;-44
2021/06/25 07:19:10;;;;;;;;;;;21.00;59.40;;;;;;481496;247;2146;-44
2021/06/25 07:21:11;;;;;;;;;;;21.10;59.40;;;;;;481659;247;1348;-44
2021/06/25 07:23:13;;;;;;;;;;;21.00;59.40;;;;;;482210;247;902;-44
2021/06/25 07:25:14;;;;;;;;;;;21.10;59.40;;;;;;481724;247;888;-44
2021/06/25 07:27:15;;;;;;;;;;;21.00;59.40;;;;;;482044;247;1076;-44
2021/06/25 07:29:17;;;;;;;;;;;21.00;59.40;;;;;;481579;247;1109;-44
2021/06/25 07:31:18;;;;;;;;;;;21.00;59.40;;;;;;481096;247;1505;-44
2021/06/25 07:33:19;;;;;;;;;;;21.00;59.50;;;;;;481347;247;1221;-44
2021/06/25 07:35:21;;;;;;;;;;;21.00;59.40;;;;;;481113;247;1163;-44
2021/06/25 07:37:22;;;;;;;;;;;21.10;59.40;;;;;;481159;247;1182;-44
2021/06/25 07:39:23;;;;;;;;;;;21.00;59.40;;;;;;481305;247;2429;-44
2021/06/25 07:41:25;;;;;;;;;;;21.00;59.40;;;;;;481029;247;1155;-44
2021/06/25 07:43:26;;;;;;;;;;;21.10;59.40;;;;;;481293;247;1157;-44
2021/06/25 07:45:27;;;;;;;;;;;21.10;59.40;;;;;;481291;247;1191;-44
2021/06/25 07:47:29;;;;;;;;;;;21.10;59.40;;;;;;480956;247;1120;-44
2021/06/25 07:49:30;;;;;;;;;;;21.10;59.30;;;;;;481183;247;1360;-44
2021/06/25 07:51:32;;;;;;;;;;;21.10;59.30;;;;;;481198;247;1219;-44
2021/06/25 07:53:33;;;;;;;;;;;21.10;59.30;;;;;;481040;247;1364;-44
2021/06/25 07:55:34;;;;;;;;;;;21.10;59.40;;;;;;481077;247;1374;-44
2021/06/25 07:57:35;;;;;;;;;;;21.10;59.40;;;;;;480919;247;1159;-44
2021/06/25 07:59:37;;;;;;;;;;;21.10;59.40;;;;;;481109;247;2200;-44
2021/06/25 08:01:38;;;;;;;;;;;21.00;59.40;;;;;;480982;247;1208;-44
2021/06/25 08:03:39;;;;;;;;;;;21.10;59.40;;;;;;481155;247;1281;-44
2021/06/25 08:05:41;;;;;;;;;;;21.10;59.40;;;;;;481167;247;1223;-44
2021/06/25 08:07:43;;;;;;;;;;;21.10;59.40;;;;;;481029;247;1152;-44
2021/06/25 08:09:43;;;;;;;;;;;21.00;59.40;;;;;;481174;247;1755;-44
2021/06/25 08:11:46;;;;;;;;;;;21.10;59.40;;;;;;481133;247;1290;-44
2021/06/25 08:13:46;;;;;;;;;;;21.10;59.30;;;;;;481714;247;2183;-44
2021/06/25 08:15:49;;;;;;;;;;;21.10;59.40;;;;;;481896;247;1168;-44
2021/06/25 08:17:51;;;;;;;;;;;21.10;59.40;;;;;;481371;247;993;-44
2021/06/25 08:19:52;;;;;;;;;;;21.10;59.30;;;;;;481427;247;2249;-44
2021/06/25 08:21:53;;;;;;;;;;;21.10;59.30;;;;;;481456;247;1334;-44
2021/06/25 08:23:55;;;;;;;;;;;21.10;59.30;;;;;;481977;247;894;-44
2021/06/25 08:25:56;;;;;;;;;;;21.10;59.20;;;;;;481935;247;1169;-44
2021/06/25 08:27:58;;;;;;;;;;;21.10;59.30;;;;;;481983;247;1179;-44
2021/06/25 08:30:00;;;;;;;;;;;21.10;59.30;;;;;;482038;247;904;-44
2021/06/25 08:32:00;;;;;;;;;;;21.10;59.30;;;;;;481963;247;1359;-44
2021/06/25 08:34:02;;;;;;;;;;;21.10;59.30;;;;;;482113;247;857;-44
2021/06/25 08:36:03;;;;;;;;;;;21.10;59.30;;;;;;481683;247;856;-44
2021/06/25 08:38:04;;;;;;;;;;;21.10;59.40;;;;;;482065;247;861;-44
2021/06/25 08:40:07;;;;;;;;;;;21.10;59.40;;;;;;482045;247;2193;-44
2021/06/25 08:42:08;;;;;;;;;;;21.10;59.30;;;;;;481511;247;2110;-44
2021/06/25 08:44:08;;;;;;;;;;;21.10;59.40;;;;;;481774;247;1762;-44
2021/06/25 08:46:09;;;;;;;;;;;21.10;59.30;;;;;;481951;247;1022;-44
2021/06/25 08:48:11;;;;;;;;;;;21.10;59.30;;;;;;482029;247;1119;-44
2021/06/25 08:50:12;;;;;;;;;;;21.10;59.30;;;;;;481693;247;839;-44
2021/06/25 08:52:13;;;;;;;;;;;21.10;59.30;;;;;;481519;247;1125;-44
2021/06/25 08:54:15;;;;;;;;;;;21.00;59.40;;;;;;482019;247;904;-44
2021/06/25 08:56:16;;;;;;;;;;;21.10;59.40;;;;;;481988;247;1111;-44
2021/06/25 08:58:17;;;;;;;;;;;21.10;59.40;;;;;;482013;247;2223;-44
2021/06/25 09:00:19;;;;;;;;;;;21.10;59.40;;;;;;481505;247;876;-45
2021/06/25 09:02:20;;;;;;;;;;;21.00;59.40;;;;;;481896;247;1068;-44
2021/06/25 09:04:21;;;;;;;;;;;21.00;59.50;;;;;;481600;247;981;-44
2021/06/25 09:06:23;;;;;;;;;;;21.00;59.50;;;;;;482026;244;1146;-44
2021/06/25 09:08:24;;;;;;;;;;;21.00;59.50;;;;;;482070;244;1275;-44
2021/06/25 09:10:26;;;;;;;;;;;21.00;59.60;;;;;;482120;247;1479;-44
2021/06/25 09:12:27;;;;;;;;;;;20.90;59.60;;;;;;481588;247;1351;-44
2021/06/25 09:14:28;;;;;;;;;;;21.00;59.60;;;;;;481625;247;1265;-44
2021/06/25 09:16:30;;;;;;;;;;;20.90;59.70;;;;;;481499;247;1271;-44
2021/06/25 09:18:31;;;;;;;;;;;20.90;59.70;;;;;;481559;247;2193;-44
2021/06/25 09:20:32;;;;;;;;;;;20.90;59.70;;;;;;481585;247;1288;-44
2021/06/25 09:22:34;;;;;;;;;;;20.90;59.70;;;;;;481959;247;1044;-44
2021/06/25 09:24:35;;;;;;;;;;;20.90;59.70;;;;;;481931;247;856;-44
2021/06/25 09:26:36;;;;;;;;;;;20.90;59.70;;;;;;481478;247;1142;-44
2021/06/25 09:28:38;;;;;;;;;;;20.90;59.70;;;;;;481574;247;1186;-44
2021/06/25 09:30:39;;;;;;;;;;;20.90;59.70;;;;;;481578;247;1082;-44
2021/06/25 09:32:42;;;;;;;;;;;20.90;59.70;;;;;;481470;247;1105;-44
2021/06/25 09:34:42;;;;;;;;;;;20.90;59.80;;;;;;481977;247;2356;-44
2021/06/25 09:36:43;;;;;;;;;;;20.90;59.80;;;;;;481515;243;1211;-44
2021/06/25 09:38:44;;;;;;;;;;;20.90;59.90;;;;;;481497;247;2192;-44
2021/06/25 09:40:46;;;;;;;;;;;20.90;59.90;;;;;;481312;247;1161;-44
2021/06/25 09:42:47;;;;;;;;;;;20.90;59.90;;;;;;480675;244;1282;-44
2021/06/25 09:44:48;;;;;;;;;;;20.90;59.80;;;;;;481713;247;1144;-44
2021/06/25 09:46:50;;;;;;;;;;;20.90;59.80;;;;;;481485;247;1180;-44
2021/06/25 09:48:51;;;;;;;;;;;20.90;59.80;;;;;;481568;247;873;-44
2021/06/25 09:50:52;;;;;;;;;;;20.90;59.70;;;;;;481579;247;1232;-44
2021/06/25 09:52:53;;;;;;;;;;;20.90;59.80;;;;;;481520;247;1208;-44
2021/06/25 09:54:55;;;;;;;;;;;20.90;59.90;;;;;;481506;247;1154;-44
2021/06/25 09:57:03;;;;;;;;;;;20.90;59.90;;;;;;481411;247;1241;-44
2021/06/25 09:59:01;;;;;;;;;;;20.90;59.90;;;;;;481904;247;2237;-44
2021/06/25 10:03:18;;;;;;;;;;;20.90;59.90;;;;;;482072;247;1313;-44
2021/06/25 10:05:19;;;;;;;;;;;20.90;60.00;;;;;;481877;247;844;-44
2021/06/25 10:07:20;;;;;;;;;;;20.80;59.90;;;;;;481386;247;879;-44
2021/06/25 10:09:22;;;;;;;;;;;20.90;59.90;;;;;;481296;247;1434;-44
2021/06/25 10:11:23;;;;;;;;;;;20.80;59.90;;;;;;481711;247;1230;-44
2021/06/25 10:13:24;;;;;;;;;;;20.80;59.90;;;;;;481928;247;1261;-44
2021/06/25 10:15:26;;;;;;;;;;;20.80;60.00;;;;;;481776;247;1122;-44
2021/06/25 10:17:27;;;;;;;;;;;20.80;60.00;;;;;;482007;247;940;-44
2021/06/25 10:19:29;;;;;;;;;;;20.80;59.90;;;;;;481954;247;2184;-44
2021/06/25 10:21:30;;;;;;;;;;;20.80;60.00;;;;;;481768;247;878;-44
2021/06/25 10:23:31;;;;;;;;;;;20.90;59.90;;;;;;481838;247;848;-44
2021/06/25 10:25:33;;;;;;;;;;;20.90;60.00;;;;;;481895;247;867;-44
2021/06/25 10:27:34;;;;;;;;;;;20.80;60.00;;;;;;481486;247;897;-44
2021/06/25 10:31:38;;;;;;;;;;;20.80;59.90;;;;;;481421;239;3470;-47
2021/06/25 10:33:40;;;;;;;;;;;20.80;59.90;;;;;;485460;245;1240;-46
2021/06/25 10:35:41;;;;;;;;;;;20.80;59.90;;;;;;485251;245;1143;-45
2021/06/25 10:37:42;;;;;;;;;;;20.80;60.00;;;;;;484737;245;1361;-46
2021/06/25 10:39:44;;;;;;;;;;;20.80;60.00;;;;;;485703;245;2195;-46
2021/06/25 10:41:45;;;;;;;;;;;20.80;60.00;;;;;;486179;245;805;-46
2021/06/25 10:43:47;;;;;;;;;;;20.80;60.00;;;;;;485674;245;784;-46
2021/06/25 10:45:48;;;;;;;;;;;20.80;59.90;;;;;;485575;245;1247;-46
2021/06/25 10:47:49;;;;;;;;;;;20.80;59.90;;;;;;485527;245;1436;-46
2021/06/25 10:49:50;;;;;;;;;;;20.80;59.90;;;;;;485342;245;909;-46
2021/06/25 10:51:52;;;;;;;;;;;20.80;60.00;;;;;;486204;245;1067;-46
2021/06/25 10:53:53;;;;;;;;;;;20.80;59.90;;;;;;486169;245;739;-46
2021/06/25 10:55:54;;;;;;;;;;;20.80;59.90;;;;;;485979;245;1035;-45
2021/06/25 10:57:56;;;;;;;;;;;20.80;60.00;;;;;;485598;245;800;-44
2021/06/25 10:59:57;;;;;;;;;;;20.80;60.00;;;;;;486230;245;2186;-44
2021/06/25 11:01:58;;;;;;;;;;;20.80;59.90;;;;;;485835;245;1031;-44
2021/06/25 11:04:00;;;;;;;;;;;20.80;60.00;;;;;;486175;245;756;-44
2021/06/25 11:06:01;;;;;;;;;;;20.80;60.00;;;;;;486098;245;807;-44
2021/06/25 11:08:02;;;;;;;;;;;20.80;59.90;;;;;;486060;245;777;-44
2021/06/25 11:10:04;;;;;;;;;;;20.80;59.90;;;;;;486026;245;776;-44
2021/06/25 11:12:05;;;;;;;;;;;20.80;60.00;;;;;;485467;245;1000;-44
2021/06/25 11:14:06;;;;;;;;;;;20.80;60.00;;;;;;486138;245;784;-44
2021/06/25 11:16:08;;;;;;;;;;;20.80;60.00;;;;;;486137;245;1269;-44
2021/06/25 11:18:09;;;;;;;;;;;20.80;60.00;;;;;;486254;245;1273;-44
2021/06/25 11:20:10;;;;;;;;;;;20.80;60.00;;;;;;485965;245;2206;-44
2021/06/25 11:22:11;;;;;;;;;;;20.80;60.00;;;;;;485725;245;1375;-44
2021/06/25 11:24:13;;;;;;;;;;;20.80;60.00;;;;;;484860;245;797;-44
2021/06/25 11:26:14;;;;;;;;;;;20.80;59.90;;;;;;485312;245;1435;-44
2021/06/25 11:28:18;;;;;;;;;;;20.80;59.90;;;;;;485842;245;756;-44
2021/06/25 11:30:18;;;;;;;;;;;20.80;60.00;;;;;;485635;245;1398;-44
2021/06/25 11:32:19;;;;;;;;;;;20.80;60.00;;;;;;485698;245;1081;-44
2021/06/25 11:34:21;;;;;;;;;;;20.80;60.00;;;;;;486275;245;757;-44
2021/06/25 11:36:22;;;;;;;;;;;20.80;60.00;;;;;;486229;245;1457;-43
2021/06/25 11:38:23;;;;;;;;;;;20.80;60.00;;;;;;486181;245;949;-44
2021/06/25 11:40:25;;;;;;;;;;;20.80;60.00;;;;;;485797;245;2198;-44
2021/06/25 11:42:28;;;;;;;;;;;20.80;60.00;;;;;;486103;245;813;-44
2021/06/25 11:44:27;;;;;;;;;;;20.80;60.00;;;;;;486113;245;2137;-44
2021/06/25 11:46:29;;;;;;;;;;;20.80;60.00;;;;;;486149;245;1323;-44
2021/06/25 11:48:31;;;;;;;;;;;20.80;59.90;;;;;;485703;245;757;-44
2021/06/25 11:50:37;;;;;;;;;;;20.80;59.90;;;;;;485427;245;1729;-44
2021/06/25 11:52:33;;;;;;;;;;;20.80;60.00;;;;;;485532;245;1274;-44
2021/06/25 11:54:34;;;;;;;;;;;20.80;59.90;;;;;;485527;245;909;-44
2021/06/25 11:56:35;;;;;;;;;;;20.80;59.90;;;;;;485790;241;1352;-44
2021/06/25 11:58:37;;;;;;;;;;;20.80;59.90;;;;;;485995;245;797;-44
2021/06/25 12:00:38;;;;;;;;;;;20.80;59.90;;;;;;486144;245;2186;-44
2021/06/25 12:02:39;;;;;;;;;;;20.80;60.00;;;;;;485584;245;1213;-44
2021/06/25 12:04:41;;;;;;;;;;;20.80;59.90;;;;;;485926;245;897;-44
2021/06/25 12:06:42;;;;;;;;;;;20.80;60.00;;;;;;486217;245;1343;-44
2021/06/25 12:08:43;;;;;;;;;;;20.80;59.90;;;;;;486302;245;711;-44
2021/06/25 12:10:45;;;;;;;;;;;20.80;59.90;;;;;;486045;245;1473;-44